createdAt,value
2018-10-02T00:01:16.598Z,12.28
2018-10-02T00:03:44.687Z,12.35
2018-10-02T00:06:12.487Z,11.95
2018-10-02T00:08:40.466Z,11.00
2018-10-02T00:11:14.016Z,11.50
2018-10-02T00:13:48.638Z,11.80
2018-10-02T00:16:16.684Z,11.28
2018-10-02T00:18:44.656Z,11.43
2018-10-02T00:21:12.827Z,12.40
2018-10-02T00:23:40.918Z,11.83
2018-10-02T00:26:08.922Z,9.80
2018-10-02T00:28:37.034Z,11.03
2018-10-02T00:31:05.127Z,12.55
2018-10-02T00:33:33.189Z,12.15
2018-10-02T00:36:01.256Z,12.73
2018-10-02T00:38:29.273Z,12.05
2018-10-02T00:40:57.426Z,13.60
2018-10-02T00:43:25.452Z,11.45
2018-10-02T00:45:53.448Z,13.20
2018-10-02T00:48:21.608Z,11.30
2018-10-02T00:50:49.676Z,12.07
2018-10-02T00:53:17.748Z,12.40
2018-10-02T00:55:46.183Z,10.90
2018-10-02T00:58:14.108Z,14.95
2018-10-02T01:00:42.264Z,12.03
2018-10-02T01:03:10.351Z,12.30
2018-10-02T01:05:38.124Z,11.15
2018-10-02T01:08:06.204Z,11.83
2018-10-02T01:10:34.271Z,11.73
2018-10-02T01:13:02.271Z,11.80
2018-10-02T01:15:30.223Z,13.75
2018-10-02T01:17:58.541Z,12.40
2018-10-02T01:20:26.555Z,11.93
2018-10-02T01:22:54.487Z,11.40
2018-10-02T01:25:22.724Z,10.98
2018-10-02T01:27:51.969Z,10.72
2018-10-02T01:30:20.124Z,10.95
2018-10-02T01:32:48.203Z,10.40
2018-10-02T01:35:16.549Z,10.30
2018-10-02T01:37:44.547Z,11.38
2018-10-02T01:40:14.427Z,10.10
2018-10-02T01:42:42.976Z,9.98
2018-10-02T01:45:11.264Z,9.65
2018-10-02T01:47:39.264Z,10.08
2018-10-02T01:50:07.268Z,9.85
2018-10-02T01:52:35.489Z,10.78
2018-10-02T01:55:03.541Z,9.40
2018-10-02T01:57:31.508Z,11.97
2018-10-02T02:00:00.191Z,11.10
2018-10-02T02:02:28.275Z,11.43
2018-10-02T02:04:56.480Z,10.88
2018-10-02T02:07:24.475Z,9.70
2018-10-02T02:09:52.440Z,9.73
2018-10-02T02:12:21.455Z,10.00
2018-10-02T02:14:49.421Z,9.95
2018-10-02T02:17:17.323Z,8.15
2018-10-02T02:19:45.471Z,9.40
2018-10-02T02:22:13.598Z,9.18
2018-10-02T02:24:42.004Z,8.73
2018-10-02T02:27:10.292Z,8.28
2018-10-02T02:29:38.407Z,9.13
2018-10-02T02:32:06.440Z,10.23
2018-10-02T02:34:34.509Z,9.28
2018-10-02T02:37:02.569Z,9.80
2018-10-02T02:39:30.700Z,9.98
2018-10-02T02:41:58.685Z,9.78
2018-10-02T02:44:26.714Z,8.68
2018-10-02T02:46:59.416Z,8.78
2018-10-02T02:49:32.883Z,11.50
2018-10-02T02:52:01.276Z,8.35
2018-10-02T02:54:29.103Z,9.18
2018-10-02T02:56:57.316Z,9.98
2018-10-02T02:59:25.278Z,8.70
2018-10-02T03:01:53.395Z,11.38
2018-10-02T03:04:21.479Z,10.75
2018-10-02T03:06:49.459Z,8.93
2018-10-02T03:09:17.675Z,9.60
2018-10-02T03:11:45.719Z,9.05
2018-10-02T03:14:13.815Z,9.68
2018-10-02T03:16:41.848Z,8.25
2018-10-02T03:19:09.985Z,9.30
2018-10-02T03:21:38.042Z,9.63
2018-10-02T03:24:06.041Z,8.50
2018-10-02T03:26:35.099Z,8.93
2018-10-02T03:29:03.042Z,10.30
2018-10-02T03:31:31.204Z,14.30
2018-10-02T03:33:59.256Z,10.60
2018-10-02T03:36:27.410Z,12.30
2018-10-02T03:38:55.307Z,11.83
2018-10-02T03:41:23.511Z,10.78
2018-10-02T03:43:51.569Z,10.90
2018-10-02T03:46:19.564Z,9.80
2018-10-02T03:48:47.559Z,10.32
2018-10-02T03:51:15.760Z,12.78
2018-10-02T03:53:44.017Z,12.53
2018-10-02T03:56:12.210Z,12.00
2018-10-02T03:58:40.183Z,12.05
2018-10-02T04:01:08.295Z,10.48
2018-10-02T04:03:36.406Z,11.80
2018-10-02T04:06:04.540Z,11.00
2018-10-02T04:08:32.621Z,13.35
2018-10-02T04:11:00.748Z,13.53
2018-10-02T04:13:29.165Z,11.93
2018-10-02T04:15:57.395Z,13.95
2018-10-02T04:18:25.497Z,17.57
2018-10-02T04:20:53.619Z,21.25
2018-10-02T04:23:21.604Z,12.93
2018-10-02T04:25:49.612Z,13.00
2018-10-02T04:28:17.808Z,16.37
2018-10-02T04:30:45.861Z,15.90
2018-10-02T04:33:13.820Z,19.02
2018-10-02T04:35:42.038Z,20.30
2018-10-02T04:38:09.975Z,17.07
2018-10-02T04:40:38.416Z,14.47
2018-10-02T04:43:06.540Z,21.48
2018-10-02T04:45:34.454Z,18.87
2018-10-02T04:48:02.663Z,19.82
2018-10-02T04:50:32.044Z,14.47
2018-10-02T04:52:59.904Z,13.03
2018-10-02T04:55:27.700Z,15.75
2018-10-02T04:57:56.335Z,14.47
2018-10-02T05:00:24.135Z,11.25
2018-10-02T05:02:52.283Z,13.83
2018-10-02T05:05:20.384Z,12.20
2018-10-02T05:07:48.445Z,11.50
2018-10-02T05:10:17.063Z,12.90
2018-10-02T05:12:45.061Z,11.22
2018-10-02T05:15:13.260Z,12.58
2018-10-02T05:17:41.293Z,11.97
2018-10-02T05:20:09.475Z,12.33
2018-10-02T05:22:37.482Z,10.93
2018-10-02T05:25:05.628Z,12.55
2018-10-02T05:27:33.642Z,13.45
2018-10-02T05:30:01.648Z,14.65
2018-10-02T05:32:29.669Z,14.25
2018-10-02T05:34:57.859Z,13.35
2018-10-02T05:37:25.903Z,21.95
2018-10-02T05:39:53.968Z,16.82
2018-10-02T05:42:22.140Z,16.25
2018-10-02T05:44:50.045Z,18.25
2018-10-02T05:48:42.949Z,16.95
2018-10-02T05:51:10.939Z,20.57
2018-10-02T05:53:39.112Z,30.20
2018-10-02T05:56:07.122Z,32.60
2018-10-02T05:58:35.304Z,21.68
2018-10-02T06:01:03.320Z,25.08
2018-10-02T06:03:31.453Z,21.45
2018-10-02T06:05:59.536Z,17.10
2018-10-02T06:08:27.450Z,17.27
2018-10-02T06:10:55.657Z,16.67
2018-10-02T06:13:24.748Z,21.57
2018-10-02T06:15:53.375Z,16.30
2018-10-02T06:18:21.425Z,16.67
2018-10-02T06:20:49.452Z,19.77
2018-10-02T06:23:17.619Z,21.37
2018-10-02T06:25:46.853Z,20.02
2018-10-02T06:28:14.902Z,20.37
2018-10-02T06:30:42.979Z,18.82
2018-10-02T06:33:12.515Z,22.05
2018-10-02T06:35:40.691Z,25.20
2018-10-02T06:38:08.736Z,29.12
2018-10-02T06:40:36.747Z,32.75
2018-10-02T06:43:04.781Z,29.15
2018-10-02T06:45:32.936Z,31.75
2018-10-02T06:48:01.008Z,29.75
2018-10-02T06:50:29.084Z,33.02
2018-10-02T06:52:57.179Z,39.25
2018-10-02T06:55:26.420Z,28.20
2018-10-02T06:57:54.468Z,33.73
2018-10-02T07:00:22.494Z,39.60
2018-10-02T07:02:50.717Z,39.08
2018-10-02T07:05:19.956Z,31.00
2018-10-02T07:07:48.045Z,32.50
2018-10-02T07:10:16.107Z,30.93
2018-10-02T07:12:44.258Z,33.40
2018-10-02T07:15:12.612Z,32.00
2018-10-02T07:17:40.692Z,34.17
2018-10-02T07:20:08.707Z,31.50
2018-10-02T07:22:36.708Z,29.27
2018-10-02T07:25:04.783Z,30.63
2018-10-02T07:27:32.928Z,31.80
2018-10-02T07:30:00.900Z,32.20
2018-10-02T07:32:29.181Z,40.27
2018-10-02T07:34:57.457Z,29.10
2018-10-02T07:37:25.482Z,31.57
2018-10-02T07:39:53.548Z,32.50
2018-10-02T07:42:22.585Z,27.23
2018-10-02T07:44:50.700Z,30.67
2018-10-02T07:47:18.680Z,28.10
2018-10-02T07:49:46.844Z,29.37
2018-10-02T07:52:14.818Z,26.47
2018-10-02T07:54:42.809Z,28.33
2018-10-02T07:57:11.059Z,30.63
2018-10-02T07:59:39.104Z,23.23
2018-10-02T08:02:07.687Z,25.13
2018-10-02T08:04:35.824Z,22.43
2018-10-02T08:07:03.873Z,22.70
2018-10-02T08:09:31.963Z,20.30
2018-10-02T08:12:02.212Z,16.77
2018-10-02T08:14:30.286Z,17.33
2018-10-02T08:16:58.302Z,18.77
2018-10-02T08:19:27.183Z,18.17
2018-10-02T08:21:55.434Z,18.03
2018-10-02T08:24:23.548Z,14.73
2018-10-02T08:26:51.873Z,16.27
2018-10-02T08:29:19.919Z,17.87
2018-10-02T08:31:47.999Z,16.23
2018-10-02T08:34:16.044Z,14.73
2018-10-02T08:36:44.117Z,16.43
2018-10-02T08:39:12.183Z,16.00
2018-10-02T08:41:40.619Z,15.93
2018-10-02T08:44:09.867Z,16.47
2018-10-02T08:46:37.962Z,13.97
2018-10-02T08:49:06.036Z,20.00
2018-10-02T08:51:34.073Z,13.83
2018-10-02T08:54:02.224Z,14.10
2018-10-02T08:56:30.213Z,14.00
2018-10-02T08:58:58.430Z,13.93
2018-10-02T09:01:26.716Z,13.60
2018-10-02T09:03:54.731Z,14.93
2018-10-02T09:06:22.503Z,15.67
2018-10-02T09:08:50.552Z,18.03
2018-10-02T09:11:18.727Z,15.83
2018-10-02T09:13:46.774Z,17.67
2018-10-02T09:16:14.900Z,16.33
2018-10-02T09:18:42.922Z,16.33
2018-10-02T09:21:10.954Z,15.47
2018-10-02T09:23:39.008Z,14.97
2018-10-02T09:26:07.059Z,17.73
2018-10-02T09:28:35.218Z,15.53
2018-10-02T09:31:08.587Z,18.70
2018-10-02T09:33:42.392Z,16.20
2018-10-02T09:36:15.812Z,16.77
2018-10-02T09:38:49.741Z,16.03
2018-10-02T09:41:23.530Z,18.27
2018-10-02T09:43:56.285Z,16.03
2018-10-02T09:46:25.303Z,17.87
2018-10-02T09:48:53.322Z,16.17
2018-10-02T09:51:21.199Z,16.40
2018-10-02T09:53:49.253Z,17.90
2018-10-02T09:56:17.367Z,15.97
2018-10-02T09:58:45.364Z,15.47
2018-10-02T10:01:19.192Z,17.40
2018-10-02T10:03:47.460Z,18.73
2018-10-02T10:06:17.683Z,17.77
2018-10-02T10:08:45.744Z,17.33
2018-10-02T10:11:14.153Z,18.67
2018-10-02T10:13:42.145Z,18.30
2018-10-02T10:16:11.128Z,20.20
2018-10-02T10:18:39.352Z,19.53
2018-10-02T10:21:07.371Z,19.53
2018-10-02T10:23:35.421Z,18.80
2018-10-02T10:26:03.391Z,20.40
2018-10-02T10:28:31.516Z,17.60
2018-10-02T10:30:59.676Z,20.07
2018-10-02T10:33:27.724Z,18.97
2018-10-02T10:35:55.829Z,16.33
2018-10-02T10:38:23.838Z,18.23
2018-10-02T10:40:51.908Z,16.10
2018-10-02T10:43:20.268Z,17.97
2018-10-02T10:45:48.389Z,19.23
2018-10-02T10:48:16.465Z,16.90
2018-10-02T10:50:44.498Z,17.33
2018-10-02T10:53:12.645Z,19.93
2018-10-02T10:55:40.652Z,18.97
2018-10-02T10:58:08.731Z,19.53
2018-10-02T11:00:36.824Z,19.30
2018-10-02T11:03:04.943Z,20.37
2018-10-02T11:05:32.892Z,18.43
2018-10-02T11:08:01.007Z,16.97
2018-10-02T11:10:29.134Z,17.97
2018-10-02T11:12:57.066Z,20.77
2018-10-02T11:15:27.611Z,17.87
2018-10-02T11:17:55.766Z,19.73
2018-10-02T11:20:25.548Z,19.30
2018-10-02T11:22:53.535Z,17.60
2018-10-02T11:25:21.919Z,20.27
2018-10-02T11:27:51.197Z,17.43
2018-10-02T11:30:20.262Z,17.77
2018-10-02T11:32:48.445Z,14.60
2018-10-02T11:35:16.690Z,17.07
2018-10-02T11:37:45.152Z,17.00
2018-10-02T11:40:13.447Z,16.97
2018-10-02T11:42:41.659Z,16.47
2018-10-02T11:45:10.568Z,16.43
2018-10-02T11:47:38.737Z,16.40
2018-10-02T11:50:06.915Z,16.17
2018-10-02T11:52:35.202Z,13.20
2018-10-02T11:55:04.162Z,13.70
2018-10-02T11:57:32.137Z,13.80
2018-10-02T12:00:00.344Z,12.50
2018-10-02T12:02:28.525Z,13.77
2018-10-02T12:04:56.762Z,14.23
2018-10-02T12:07:25.172Z,13.57
2018-10-02T12:09:53.216Z,13.63
2018-10-02T12:12:21.303Z,13.23
2018-10-02T12:14:49.316Z,13.97
2018-10-02T12:17:17.438Z,13.73
2018-10-02T12:19:46.064Z,12.60
2018-10-02T12:22:13.904Z,12.53
2018-10-02T12:24:41.898Z,13.03
2018-10-02T12:27:10.120Z,12.03
2018-10-02T12:29:38.392Z,12.77
2018-10-02T12:32:06.497Z,11.47
2018-10-02T12:34:34.553Z,11.93
2018-10-02T12:37:02.691Z,11.80
2018-10-02T12:39:30.705Z,11.90
2018-10-02T12:41:59.580Z,12.80
2018-10-02T12:44:27.772Z,12.30
2018-10-02T12:46:55.744Z,12.70
2018-10-02T12:49:23.824Z,12.40
2018-10-02T12:51:51.951Z,12.17
2018-10-02T12:54:20.110Z,11.07
2018-10-02T12:56:48.132Z,11.17
2018-10-02T12:59:16.212Z,11.33
2018-10-02T13:01:45.500Z,10.80
2018-10-02T13:04:13.460Z,11.47
2018-10-02T13:06:41.652Z,10.00
2018-10-02T13:09:09.714Z,11.67
2018-10-02T13:11:37.935Z,10.63
2018-10-02T13:14:06.168Z,10.63
2018-10-02T13:16:34.261Z,12.17
2018-10-02T13:19:02.325Z,11.00
2018-10-02T13:21:30.251Z,10.70
2018-10-02T13:24:00.907Z,9.97
2018-10-02T13:26:28.971Z,11.47
2018-10-02T13:28:57.092Z,10.40
2018-10-02T13:31:25.084Z,11.37
2018-10-02T13:33:53.068Z,16.70
2018-10-02T13:36:21.248Z,11.23
2018-10-02T13:38:49.308Z,11.80
2018-10-02T13:41:17.426Z,10.83
2018-10-02T13:43:45.371Z,11.83
2018-10-02T13:46:13.404Z,11.00
2018-10-02T13:48:41.633Z,10.17
2018-10-02T13:51:09.616Z,12.80
2018-10-02T13:53:38.068Z,9.83
2018-10-02T13:56:06.084Z,11.00
2018-10-02T13:58:34.216Z,10.00
2018-10-02T14:01:02.151Z,11.53
2018-10-02T14:03:30.423Z,11.63
2018-10-02T14:05:58.729Z,11.23
2018-10-02T14:08:26.801Z,11.73
2018-10-02T14:10:54.795Z,10.03
2018-10-02T14:13:22.895Z,11.13
2018-10-02T14:15:51.023Z,10.97
2018-10-02T14:18:19.103Z,11.27
2018-10-02T14:20:47.203Z,11.90
2018-10-02T14:23:15.208Z,12.07
2018-10-02T14:25:43.272Z,12.87
2018-10-02T14:28:11.641Z,11.97
2018-10-02T14:30:39.925Z,11.97
2018-10-02T14:33:09.116Z,10.57
2018-10-02T14:35:37.431Z,12.97
2018-10-02T14:38:05.663Z,11.77
2018-10-02T14:40:34.763Z,12.13
2018-10-02T14:43:02.872Z,12.63
2018-10-02T14:45:30.945Z,14.17
2018-10-02T14:47:59.012Z,10.97
2018-10-02T14:50:27.142Z,13.00
2018-10-02T14:52:55.156Z,12.50
2018-10-02T14:55:23.205Z,13.53
2018-10-02T14:57:51.201Z,19.93
2018-10-02T15:00:19.001Z,11.70
2018-10-02T15:02:47.147Z,12.67
2018-10-02T15:05:15.064Z,11.57
2018-10-02T15:07:43.335Z,11.87
2018-10-02T15:10:11.104Z,15.57
2018-10-02T15:12:41.165Z,13.37
2018-10-02T15:15:09.231Z,12.97
2018-10-02T15:17:37.370Z,13.60
2018-10-02T15:20:05.474Z,16.67
2018-10-02T15:22:33.403Z,12.63
2018-10-02T15:25:01.303Z,14.23
2018-10-02T15:27:29.372Z,13.67
2018-10-02T15:29:57.687Z,14.23
2018-10-02T15:32:25.819Z,15.40
2018-10-02T15:34:54.079Z,15.20
2018-10-02T15:37:22.263Z,17.10
2018-10-02T15:39:50.216Z,16.77
2018-10-02T15:42:18.451Z,16.57
2018-10-02T15:44:46.628Z,17.00
2018-10-02T15:47:14.563Z,25.07
2018-10-02T15:49:42.644Z,18.80
2018-10-02T15:52:10.694Z,14.20
2018-10-02T15:54:38.739Z,16.20
2018-10-02T15:57:06.752Z,19.73
2018-10-02T15:59:34.857Z,22.40
2018-10-02T16:02:02.897Z,20.33
2018-10-02T16:04:30.928Z,22.00
2018-10-02T16:06:58.731Z,18.40
2018-10-02T16:09:26.882Z,21.47
2018-10-02T16:11:55.279Z,22.83
2018-10-02T16:14:23.358Z,20.60
2018-10-02T16:16:51.456Z,22.60
2018-10-02T16:19:19.484Z,19.13
2018-10-02T16:21:47.687Z,20.67
2018-10-02T16:24:15.628Z,34.70
2018-10-02T16:26:43.668Z,19.63
2018-10-02T16:29:11.764Z,26.77
2018-10-02T16:31:40.160Z,20.43
2018-10-02T16:34:08.230Z,19.70
2018-10-02T16:36:36.295Z,19.40
2018-10-02T16:39:06.759Z,19.90
2018-10-02T16:41:34.778Z,16.90
2018-10-02T16:44:03.861Z,19.33
2018-10-02T16:46:31.968Z,17.40
2018-10-02T16:49:00.427Z,22.03
2018-10-02T16:51:28.304Z,20.87
2018-10-02T16:53:56.484Z,20.07
2018-10-02T16:56:24.585Z,22.40
2018-10-02T16:58:52.589Z,20.40
2018-10-02T17:01:20.665Z,24.60
2018-10-02T17:03:48.890Z,25.60
2018-10-02T17:06:16.632Z,18.97
2018-10-02T17:08:44.928Z,17.07
2018-10-02T17:11:13.005Z,15.80
2018-10-02T17:13:43.062Z,15.83
2018-10-02T17:16:11.269Z,16.37
2018-10-02T17:18:39.235Z,14.47
2018-10-02T17:21:08.380Z,15.13
2018-10-02T17:23:36.389Z,13.23
2018-10-02T17:26:04.445Z,15.37
2018-10-02T17:28:32.538Z,14.00
2018-10-02T17:31:00.637Z,14.57
2018-10-02T17:33:28.781Z,16.83
2018-10-02T17:35:56.651Z,14.07
2018-10-02T17:38:24.628Z,14.97
2018-10-02T17:40:52.880Z,16.70
2018-10-02T17:43:20.959Z,14.83
2018-10-02T17:45:49.088Z,14.23
2018-10-02T17:48:17.117Z,16.07
2018-10-02T17:50:45.231Z,17.27
2018-10-02T17:53:13.251Z,16.85
2018-10-02T17:55:41.359Z,14.45
2018-10-02T17:58:09.754Z,13.70
2018-10-02T18:00:38.129Z,12.90
2018-10-02T18:03:06.416Z,13.35
2018-10-02T18:05:34.580Z,13.80
2018-10-02T18:08:02.586Z,14.98
2018-10-02T18:10:30.348Z,15.15
2018-10-02T18:12:58.433Z,14.45
2018-10-02T18:15:26.501Z,14.28
2018-10-02T18:17:54.578Z,15.60
2018-10-02T18:20:22.656Z,14.95
2018-10-02T18:22:50.737Z,15.28
2018-10-02T18:25:19.697Z,15.25
2018-10-02T18:27:47.772Z,15.15
2018-10-02T18:30:16.753Z,17.00
2018-10-02T18:32:44.870Z,14.13
2018-10-02T18:35:12.909Z,15.08
2018-10-02T18:37:41.007Z,20.52
2018-10-02T18:40:09.049Z,15.93
2018-10-02T18:42:37.115Z,17.32
2018-10-02T18:45:05.220Z,16.90
2018-10-02T18:47:33.040Z,15.55
2018-10-02T18:50:00.967Z,17.40
2018-10-02T18:52:29.091Z,17.75
2018-10-02T18:54:57.079Z,16.97
2018-10-02T18:57:25.488Z,19.02
2018-10-02T18:59:53.799Z,19.15
2018-10-02T19:02:22.134Z,21.37
2018-10-02T19:04:50.398Z,20.72
2018-10-02T19:07:18.468Z,22.25
2018-10-02T19:09:46.504Z,22.98
2018-10-02T19:12:17.991Z,20.72
2018-10-02T19:14:45.940Z,24.60
2018-10-02T19:17:14.222Z,22.73
2018-10-02T19:19:47.465Z,24.60
2018-10-02T19:22:15.561Z,24.43
2018-10-02T19:24:43.921Z,25.72
2018-10-02T19:27:11.825Z,26.15
2018-10-02T19:29:40.173Z,27.55
2018-10-02T19:32:11.314Z,26.30
2018-10-02T19:34:39.527Z,26.77
2018-10-02T19:37:13.193Z,25.95
2018-10-02T19:39:41.331Z,26.33
2018-10-02T19:42:09.296Z,27.67
2018-10-02T19:44:37.399Z,28.25
2018-10-02T19:47:05.428Z,28.45
2018-10-02T19:49:34.490Z,31.00
2018-10-02T19:52:08.187Z,32.00
2018-10-02T19:54:37.206Z,32.10
2018-10-02T19:57:06.240Z,33.83
2018-10-02T19:59:34.352Z,35.05
2018-10-02T20:02:02.507Z,35.38
2018-10-02T20:04:30.524Z,35.38
2018-10-02T20:06:58.661Z,35.45
2018-10-02T20:09:26.689Z,39.58
2018-10-02T20:11:55.581Z,39.92
2018-10-02T20:14:23.832Z,41.53
2018-10-02T20:16:51.688Z,40.30
2018-10-02T20:19:19.924Z,41.88
2018-10-02T20:21:47.831Z,44.53
2018-10-02T20:24:16.283Z,44.27
2018-10-02T20:26:44.287Z,43.13
2018-10-02T20:29:12.327Z,46.53
2018-10-02T20:31:42.529Z,45.65
2018-10-02T20:34:11.752Z,47.15
2018-10-02T20:36:40.139Z,45.38
2018-10-02T20:39:09.368Z,48.58
2018-10-02T20:41:37.453Z,48.75
2018-10-02T20:44:05.749Z,50.90
2018-10-02T20:46:33.792Z,47.90
2018-10-02T20:49:01.980Z,46.95
2018-10-02T20:51:30.116Z,47.40
2018-10-02T20:53:58.169Z,53.65
2018-10-02T20:56:27.132Z,51.50
2018-10-02T20:58:55.531Z,48.28
2018-10-02T21:01:23.789Z,50.73
2018-10-02T21:03:52.004Z,50.00
2018-10-02T21:06:20.276Z,47.70
2018-10-02T21:08:48.254Z,48.50
2018-10-02T21:11:16.427Z,48.40
2018-10-02T21:13:44.473Z,50.23
2018-10-02T21:16:12.548Z,51.48
2018-10-02T21:18:40.652Z,47.98
2018-10-02T21:21:08.684Z,46.92
2018-10-02T21:23:36.805Z,48.95
2018-10-02T21:26:04.771Z,49.77
2018-10-02T21:28:32.969Z,47.62
2018-10-02T21:31:00.996Z,49.77
2018-10-02T21:33:29.085Z,48.42
2018-10-02T21:35:57.265Z,46.00
2018-10-02T21:38:25.496Z,47.03
2018-10-02T21:40:53.611Z,47.25
2018-10-02T21:43:21.652Z,48.50
2018-10-02T21:52:49.069Z,46.65
2018-10-02T21:55:17.009Z,46.83
2018-10-02T21:57:44.846Z,48.20
2018-10-02T22:00:13.125Z,48.73
2018-10-02T22:02:42.294Z,45.50
2018-10-02T22:05:10.264Z,45.08
2018-10-02T22:07:38.368Z,46.85
2018-10-02T22:10:06.405Z,46.02
2018-10-02T22:12:34.568Z,47.98
2018-10-02T22:15:02.736Z,45.43
2018-10-02T22:17:30.712Z,43.48
2018-10-02T22:19:58.772Z,42.73
2018-10-02T22:22:26.853Z,43.85
2018-10-02T22:24:54.892Z,42.80
2018-10-02T22:27:22.978Z,43.90
2018-10-02T22:29:51.032Z,42.45
2018-10-02T22:32:19.231Z,42.33
2018-10-02T22:34:47.505Z,41.80
2018-10-02T22:37:15.485Z,40.30
2018-10-02T22:39:43.719Z,44.53
2018-10-02T22:42:12.005Z,42.23
2018-10-02T22:44:39.990Z,40.12
2018-10-02T22:47:08.048Z,41.50
2018-10-02T22:49:36.288Z,40.50
2018-10-02T22:52:04.300Z,39.55
2018-10-02T22:54:32.456Z,40.33
2018-10-02T22:57:01.046Z,38.80
2018-10-02T22:59:29.065Z,39.92
2018-10-02T23:01:57.208Z,40.23
2018-10-02T23:04:25.265Z,37.75
2018-10-02T23:06:53.392Z,38.65
2018-10-02T23:09:21.401Z,39.75
2018-10-02T23:11:49.375Z,37.23
2018-10-02T23:14:17.580Z,37.73
2018-10-02T23:16:46.534Z,37.13
2018-10-02T23:19:14.628Z,38.73
2018-10-02T23:21:42.580Z,38.45
2018-10-02T23:24:10.821Z,38.83
2018-10-02T23:26:38.817Z,34.90
2018-10-02T23:29:06.996Z,36.60
2018-10-02T23:31:35.311Z,35.85
2018-10-02T23:34:03.397Z,38.13
2018-10-02T23:36:31.518Z,34.40
2018-10-02T23:38:59.780Z,36.17
2018-10-02T23:41:27.764Z,35.95
2018-10-02T23:43:55.948Z,35.70
2018-10-02T23:46:24.012Z,38.45
2018-10-02T23:48:52.070Z,35.55
2018-10-02T23:51:20.652Z,34.45
2018-10-02T23:53:48.909Z,35.33
2018-10-02T23:56:16.970Z,36.28
2018-10-02T23:58:44.985Z,38.65
